Time;durP1;ratioP1;P1;durP2;ratioP2;P2;SDS_P1;SDS_P2;PMS_P1;PMS_P2;Temp;Humidity;BMP_temperature;BMP_pressure;BME280_temperature;BME280_humidity;BME280_pressure;Samples;Min_cycle;Max_cycle;Signal;HPM_P1;HPM_P2
2022/07/26 00:01:05;;;;;;;4.75;2.25;;;21.10;99.90;;;;;;4995201;28;20138;-58
2022/07/26 00:03:31;;;;;;;5.63;2.58;;;21.00;99.90;;;;;;4995053;28;20085;-57
2022/07/26 00:05:58;;;;;;;6.88;2.40;;;20.90;99.90;;;;;;4996308;28;20540;-58
2022/07/26 00:08:23;;;;;;;7.40;1.98;;;20.80;99.90;;;;;;4995825;28;20034;-57
2022/07/26 00:10:50;;;;;;;8.57;2.38;;;20.70;99.90;;;;;;4996731;28;20030;-54
2022/07/26 00:13:18;;;;;;;8.80;2.30;;;20.70;99.90;;;;;;4994983;28;20469;-58
2022/07/26 00:15:45;;;;;;;8.27;2.15;;;20.60;99.90;;;;;;4994991;28;20022;-53
2022/07/26 00:18:12;;;;;;;6.55;2.00;;;20.50;99.90;;;;;;4995872;28;20077;-56
2022/07/26 00:20:38;;;;;;;8.07;1.50;;;20.50;99.90;;;;;;4996273;28;20030;-57
2022/07/26 00:23:03;;;;;;;4.47;1.98;;;20.50;99.90;;;;;;4994729;28;20109;-57
2022/07/26 00:25:48;;;;;;;3.75;2.03;;;20.50;99.90;;;;;;4994748;28;20026;-58
2022/07/26 00:28:13;;;;;;;7.40;1.95;;;20.50;99.90;;;;;;4994516;28;20038;-58
2022/07/26 00:30:39;;;;;;;7.65;2.35;;;20.50;99.90;;;;;;4994666;28;20022;-58
2022/07/26 00:33:05;;;;;;;5.95;1.80;;;20.40;99.90;;;;;;4994585;28;20026;-56
2022/07/26 00:35:31;;;;;;;10.05;2.05;;;20.30;99.90;;;;;;4994549;28;20112;-58
2022/07/26 00:37:58;;;;;;;5.32;2.15;;;20.30;99.90;;;;;;4995625;28;20046;-58
2022/07/26 00:40:24;;;;;;;2.63;1.60;;;20.20;99.90;;;;;;4994744;28;20076;-58
2022/07/26 00:42:50;;;;;;;5.93;1.67;;;20.20;99.90;;;;;;4994338;28;20026;-54
2022/07/26 00:45:17;;;;;;;11.25;2.40;;;20.10;99.90;;;;;;4994700;28;20022;-58
2022/07/26 00:47:43;;;;;;;8.32;2.00;;;20.10;99.90;;;;;;5016924;22;20037;-54
2022/07/26 00:50:15;;;;;;;10.23;2.08;;;20.10;99.90;;;;;;4956577;28;20028;-54
2022/07/26 00:52:42;;;;;;;8.25;2.08;;;20.10;99.90;;;;;;4955620;29;20027;-54
2022/07/26 00:55:08;;;;;;;2.53;1.52;;;20.20;99.90;;;;;;4955581;29;20117;-56
2022/07/26 00:57:35;;;;;;;9.77;1.52;;;20.20;99.90;;;;;;4956964;28;20031;-51
2022/07/26 01:00:08;;;;;;;2.03;1.30;;;20.20;99.90;;;;;;4955380;28;20042;-54
2022/07/26 01:02:33;;;;;;;5.45;1.67;;;20.20;99.90;;;;;;4956544;28;20076;-52
2022/07/26 01:04:59;;;;;;;5.45;1.75;;;20.20;99.90;;;;;;4955310;28;20027;-51
2022/07/26 01:07:25;;;;;;;3.28;1.33;;;20.20;99.90;;;;;;4956416;28;20098;-51
2022/07/26 01:10:37;;;;;;;8.63;1.55;;;20.30;99.90;;;;;;4955026;28;20024;-49
2022/07/26 01:13:02;;;;;;;3.55;1.40;;;20.30;99.90;;;;;;4956202;28;20034;-53
2022/07/26 01:15:28;;;;;;;7.32;1.67;;;20.30;99.90;;;;;;4955165;28;20027;-53
2022/07/26 01:17:53;;;;;;;5.95;1.85;;;20.40;99.90;;;;;;4954974;28;20133;-53
2022/07/26 01:20:19;;;;;;;2.95;1.58;;;20.40;99.90;;;;;;4955003;28;20034;-51
2022/07/26 01:22:45;;;;;;;7.13;1.70;;;20.50;99.90;;;;;;4955230;28;20055;-55
2022/07/26 01:25:10;;;;;;;2.63;1.55;;;20.50;99.90;;;;;;4956129;28;20062;-53
2022/07/26 01:27:38;;;;;;;6.65;1.60;;;20.50;99.90;;;;;;4956066;28;20031;-52
2022/07/26 01:30:07;;;;;;;7.60;1.60;;;20.50;99.90;;;;;;4955125;28;20078;-50
2022/07/26 01:32:33;;;;;;;7.07;1.40;;;20.50;99.90;;;;;;4954669;28;20042;-49
2022/07/26 01:34:59;;;;;;;2.80;1.35;;;20.50;99.90;;;;;;4954977;28;20027;-53
2022/07/26 01:37:24;;;;;;;7.57;1.85;;;20.60;99.90;;;;;;4955905;28;20019;-56
2022/07/26 01:39:50;;;;;;;4.25;1.35;;;20.60;99.90;;;;;;4954974;28;20031;-53
2022/07/26 01:42:15;;;;;;;3.35;1.27;;;20.60;99.90;;;;;;4954887;28;20054;-55
2022/07/26 01:44:41;;;;;;;2.67;1.10;;;20.70;99.90;;;;;;4956092;28;20027;-56
2022/07/26 01:47:07;;;;;;;8.65;1.48;;;20.60;99.90;;;;;;4954553;28;20070;-55
2022/07/26 01:49:32;;;;;;;4.82;1.50;;;20.70;99.90;;;;;;4954902;28;20174;-54
2022/07/26 01:51:58;;;;;;;2.63;1.00;;;20.70;99.90;;;;;;4954735;28;20032;-56
2022/07/26 01:54:23;;;;;;;6.15;1.13;;;20.70;99.90;;;;;;4954443;28;20085;-55
2022/07/26 01:56:49;;;;;;;3.90;1.52;;;20.70;99.90;;;;;;4955827;28;20031;-52
2022/07/26 01:59:15;;;;;;;3.05;1.20;;;20.70;99.90;;;;;;4954190;28;20034;-54
2022/07/26 02:01:40;;;;;;;1.65;1.23;;;20.60;99.90;;;;;;4954303;28;20126;-49
2022/07/26 02:04:07;;;;;;;3.30;1.30;;;20.50;99.90;;;;;;4954653;28;20031;-51
2022/07/26 02:06:33;;;;;;;5.15;1.20;;;20.40;99.90;;;;;;4954247;28;20481;-52
2022/07/26 02:08:59;;;;;;;4.53;1.63;;;20.30;99.90;;;;;;4954964;28;20114;-54
2022/07/26 02:11:25;;;;;;;3.83;1.20;;;20.30;99.90;;;;;;4955042;28;20020;-54
2022/07/26 02:13:50;;;;;;;4.20;1.50;;;20.20;99.90;;;;;;4955370;28;20027;-56
2022/07/26 02:16:16;;;;;;;3.40;1.42;;;20.10;99.90;;;;;;4954434;28;20113;-52
2022/07/26 02:18:41;;;;;;;1.10;1.00;;;20.00;99.90;;;;;;4954063;28;20016;-53
2022/07/26 02:21:08;;;;;;;4.15;1.00;;;19.90;99.90;;;;;;4953999;28;20095;-56
2022/07/26 02:23:36;;;;;;;2.33;1.20;;;19.90;99.90;;;;;;4955196;28;20035;-55
2022/07/26 02:26:01;;;;;;;4.30;1.30;;;19.90;99.90;;;;;;4954893;28;20054;-55
2022/07/26 02:28:27;;;;;;;5.18;1.65;;;19.90;99.90;;;;;;4954921;28;20458;-56
2022/07/26 02:30:53;;;;;;;3.15;1.27;;;19.90;99.90;;;;;;4954018;28;20039;-55
2022/07/26 02:33:19;;;;;;;5.28;1.20;;;20.00;99.90;;;;;;4955210;28;20112;-52
2022/07/26 02:35:45;;;;;;;5.30;1.20;;;20.00;99.90;;;;;;4955158;28;20023;-50
2022/07/26 02:38:14;;;;;;;2.38;1.15;;;20.00;99.90;;;;;;4955356;28;20482;-50
2022/07/26 02:40:40;;;;;;;4.78;1.10;;;19.90;99.90;;;;;;4955209;28;20098;-52
2022/07/26 02:43:08;;;;;;;2.47;1.10;;;19.90;99.90;;;;;;4954027;28;20034;-51
2022/07/26 02:45:34;;;;;;;1.63;0.90;;;19.70;99.90;;;;;;4954247;28;20035;-49
2022/07/26 02:48:00;;;;;;;3.85;1.35;;;19.60;99.90;;;;;;4955069;28;20058;-49
2022/07/26 02:50:27;;;;;;;1.52;0.77;;;19.50;99.90;;;;;;4954196;28;20035;-52
2022/07/26 02:52:53;;;;;;;5.70;1.10;;;19.40;99.90;;;;;;4953810;28;20027;-49
2022/07/26 02:55:21;;;;;;;5.07;1.60;;;19.30;99.90;;;;;;4954217;28;20027;-53
2022/07/26 02:57:47;;;;;;;2.53;1.00;;;19.20;99.90;;;;;;4955002;28;20082;-53
2022/07/26 03:00:16;;;;;;;1.70;1.10;;;19.10;99.90;;;;;;4954631;28;20027;-50
2022/07/26 03:02:42;;;;;;;4.05;1.08;;;19.10;99.90;;;;;;4953859;28;20508;-52
2022/07/26 03:05:08;;;;;;;6.47;1.20;;;19.00;99.90;;;;;;4954275;28;20039;-49
2022/07/26 03:07:34;;;;;;;9.10;3.83;;;18.90;99.90;;;;;;4953567;28;20035;-49
2022/07/26 03:10:02;;;;;;;8.25;2.75;;;18.90;99.90;;;;;;4954973;28;20035;-53
2022/07/26 03:12:29;;;;;;;3.17;1.60;;;18.80;99.90;;;;;;4957301;28;20121;-50
2022/07/26 03:14:54;;;;;;;8.85;1.88;;;18.80;99.90;;;;;;4957693;28;20051;-49
2022/07/26 03:17:20;;;;;;;5.95;1.90;;;18.70;99.90;;;;;;4958783;28;20114;-52
2022/07/26 03:19:45;;;;;;;3.05;1.40;;;18.70;99.90;;;;;;4957110;28;20019;-49
2022/07/26 03:22:11;;;;;;;3.83;1.77;;;18.60;99.90;;;;;;4957926;28;20059;-49
2022/07/26 03:24:37;;;;;;;5.22;2.45;;;18.50;99.90;;;;;;4957214;28;20123;-49
2022/07/26 03:27:03;;;;;;;3.75;1.90;;;18.50;99.90;;;;;;4957433;28;20114;-49
2022/07/26 03:29:28;;;;;;;5.07;1.63;;;18.50;99.90;;;;;;4957314;28;20075;-51
2022/07/26 03:31:54;;;;;;;3.78;2.42;;;18.40;99.90;;;;;;4956854;28;20038;-51
2022/07/26 03:34:20;;;;;;;8.80;2.90;;;18.50;99.90;;;;;;4956893;28;20031;-56
2022/07/26 03:36:46;;;;;;;8.73;3.10;;;18.50;99.90;;;;;;4956850;28;20059;-55
2022/07/26 03:39:11;;;;;;;4.15;2.35;;;18.50;99.90;;;;;;4956841;28;20063;-54
2022/07/26 03:41:37;;;;;;;6.25;2.22;;;18.50;99.90;;;;;;4956884;28;20027;-54
2022/07/26 03:44:03;;;;;;;3.88;1.55;;;18.50;99.90;;;;;;4958004;28;20381;-49
2022/07/26 03:46:29;;;;;;;4.85;1.58;;;18.50;99.90;;;;;;4957912;28;20509;-54
2022/07/26 03:48:55;;;;;;;3.42;1.20;;;18.50;99.90;;;;;;4956458;28;20074;-50
2022/07/26 03:51:20;;;;;;;3.80;2.45;;;18.50;99.90;;;;;;4958104;28;20027;-51
2022/07/26 03:53:46;;;;;;;8.00;2.53;;;18.50;99.90;;;;;;4957416;28;20038;-56
2022/07/26 03:58:58;;;;;;;4.35;1.15;;;18.40;99.90;;;;;;4957920;29;20043;-50
2022/07/26 04:01:25;;;;;;;5.28;1.45;;;18.40;99.90;;;;;;4957967;28;20110;-51
2022/07/26 04:03:51;;;;;;;5.25;1.67;;;18.30;99.90;;;;;;4957819;28;20562;-52
2022/07/26 04:06:16;;;;;;;2.55;1.33;;;18.30;99.90;;;;;;4957166;28;20028;-51
2022/07/26 04:08:42;;;;;;;4.03;1.40;;;18.30;99.90;;;;;;4956200;28;20046;-53
2022/07/26 04:11:08;;;;;;;3.97;1.00;;;18.30;99.90;;;;;;4958304;28;20023;-55
2022/07/26 04:13:35;;;;;;;3.40;1.20;;;18.30;99.90;;;;;;4957473;28;20028;-50
2022/07/26 04:16:01;;;;;;;2.78;1.65;;;18.40;99.90;;;;;;4956640;28;20027;-56
2022/07/26 04:18:26;;;;;;;4.28;2.33;;;18.60;99.90;;;;;;4956146;28;20122;-56
2022/07/26 04:20:52;;;;;;;7.43;2.15;;;18.80;99.90;;;;;;4956052;28;20471;-56
2022/07/26 04:23:18;;;;;;;8.57;3.95;;;19.00;99.90;;;;;;4957029;28;20082;-50
2022/07/26 04:25:43;;;;;;;7.07;2.60;;;19.20;99.90;;;;;;4957200;28;20039;-52
2022/07/26 04:28:10;;;;;;;9.57;3.00;;;19.40;99.90;;;;;;4957120;28;20078;-52
2022/07/26 04:30:36;;;;;;;8.82;2.35;;;19.70;99.90;;;;;;4955925;28;20054;-53
2022/07/26 04:33:02;;;;;;;3.40;1.42;;;19.90;99.90;;;;;;4956774;28;20055;-56
2022/07/26 04:35:27;;;;;;;3.38;1.50;;;20.00;99.90;;;;;;4955907;28;20024;-55
2022/07/26 04:37:53;;;;;;;5.47;1.70;;;20.30;99.90;;;;;;4955780;28;20074;-54
2022/07/26 04:40:20;;;;;;;5.82;1.77;;;20.50;99.90;;;;;;4955936;28;20028;-51
2022/07/26 04:42:47;;;;;;;6.18;1.95;;;20.80;99.90;;;;;;4955636;28;20027;-50
2022/07/26 04:45:13;;;;;;;4.35;1.40;;;21.00;99.90;;;;;;4956023;28;20031;-52
2022/07/26 04:47:44;;;;;;;1.55;1.10;;;21.30;99.90;;;;;;4957002;28;20452;-54
2022/07/26 04:50:11;;;;;;;2.05;0.75;;;21.70;99.90;;;;;;4955896;28;20031;-55
2022/07/26 04:52:37;;;;;;;1.38;0.70;;;21.90;99.90;;;;;;4956677;28;20027;-51
2022/07/26 04:55:05;;;;;;;4.95;0.93;;;22.20;99.90;;;;;;4955516;28;20091;-52
2022/07/26 04:57:30;;;;;;;2.42;1.00;;;22.70;99.90;;;;;;4956609;28;20073;-52
2022/07/26 04:59:56;;;;;;;4.43;0.95;;;23.10;99.90;;;;;;4956541;28;20102;-55
2022/07/26 05:02:21;;;;;;;3.88;0.80;;;23.40;99.90;;;;;;4955306;28;20030;-54
2022/07/26 05:04:47;;;;;;;2.33;0.90;;;23.80;99.90;;;;;;4955317;28;20030;-56
2022/07/26 05:07:12;;;;;;;3.08;0.93;;;24.00;99.90;;;;;;4956408;28;20028;-60
2022/07/26 05:09:38;;;;;;;1.33;0.75;;;24.30;99.90;;;;;;4955218;28;20031;-59
2022/07/26 05:12:04;;;;;;;2.53;0.90;;;24.60;99.90;;;;;;4956288;28;20397;-62
2022/07/26 05:14:30;;;;;;;5.45;0.98;;;24.70;99.90;;;;;;4955160;28;20093;-57
2022/07/26 05:16:55;;;;;;;3.45;0.80;;;24.90;99.90;;;;;;4956310;28;20030;-59
2022/07/26 05:19:21;;;;;;;1.63;0.80;;;25.20;99.90;;;;;;4954982;28;20071;-52
2022/07/26 05:21:46;;;;;;;12.63;4.80;;;25.40;99.90;;;;;;4955339;28;20099;-48
2022/07/26 05:24:12;;;;;;;3.65;1.77;;;25.80;99.90;;;;;;4955207;28;20031;-51
2022/07/26 05:26:37;;;;;;;2.15;1.00;;;26.10;99.90;;;;;;4954995;28;20098;-51
2022/07/26 05:29:03;;;;;;;4.07;1.13;;;26.40;99.90;;;;;;4954946;28;20053;-50
2022/07/26 05:31:29;;;;;;;2.42;0.90;;;26.60;99.90;;;;;;4955458;28;20024;-51
2022/07/26 05:33:54;;;;;;;3.28;0.98;;;26.80;99.90;;;;;;4954083;28;20191;-50
2022/07/26 05:36:20;;;;;;;2.40;0.80;;;27.00;99.90;;;;;;4954746;28;20478;-52
2022/07/26 05:38:46;;;;;;;4.18;0.93;;;27.20;99.90;;;;;;4954693;28;20057;-54
2022/07/26 05:41:12;;;;;;;4.05;0.77;;;27.50;99.90;;;;;;4954554;28;20050;-52
2022/07/26 05:43:37;;;;;;;4.72;1.63;;;27.70;99.90;;;;;;4954441;28;20044;-52
2022/07/26 05:46:03;;;;;;;4.07;0.80;;;28.00;99.80;;;;;;4954537;28;20394;-50
2022/07/26 05:48:29;;;;;;;4.57;0.85;;;28.20;99.00;;;;;;4954522;28;20121;-48
2022/07/26 05:50:54;;;;;;;4.03;0.82;;;28.50;98.30;;;;;;4954450;28;20126;-50
2022/07/26 05:53:20;;;;;;;3.33;1.25;;;28.90;97.20;;;;;;4955784;28;20024;-52
2022/07/26 05:55:46;;;;;;;2.13;0.90;;;29.30;96.40;;;;;;4955938;28;20030;-54
2022/07/26 05:58:12;;;;;;;4.18;1.00;;;29.70;95.50;;;;;;4954392;28;20023;-49
2022/07/26 06:00:37;;;;;;;3.30;0.77;;;29.80;94.50;;;;;;4954730;28;20024;-52
2022/07/26 06:03:20;;;;;;;2.42;0.98;;;30.10;93.40;;;;;;4954712;28;20070;-52
2022/07/26 06:05:55;;;;;;;8.98;1.10;;;30.20;93.20;;;;;;4954630;28;20389;-50
2022/07/26 06:08:21;;;;;;;4.18;1.20;;;30.50;92.80;;;;;;4955537;28;20034;-51
2022/07/26 06:10:48;;;;;;;4.93;0.98;;;30.90;91.30;;;;;;4955465;28;20397;-53
2022/07/26 06:13:14;;;;;;;3.65;0.90;;;31.10;90.60;;;;;;4954220;28;20172;-49
2022/07/26 06:15:41;;;;;;;1.98;1.05;;;31.50;90.40;;;;;;4954183;28;20082;-52
2022/07/26 06:18:07;;;;;;;4.40;1.40;;;31.80;88.10;;;;;;4954068;28;20029;-48
2022/07/26 06:20:33;;;;;;;2.55;0.90;;;32.40;87.40;;;;;;4955417;28;20020;-55
2022/07/26 06:22:59;;;;;;;4.22;1.17;;;32.80;84.90;;;;;;4954369;28;20034;-54
2022/07/26 06:25:25;;;;;;;4.47;1.30;;;33.00;82.20;;;;;;4954159;28;20031;-54
2022/07/26 06:27:51;;;;;;;2.53;1.00;;;33.20;82.70;;;;;;4954009;28;20027;-51
2022/07/26 06:30:17;;;;;;;4.68;1.30;;;33.50;80.20;;;;;;4955517;28;20082;-54
2022/07/26 06:32:43;;;;;;;4.93;0.95;;;33.70;78.40;;;;;;4954305;28;20031;-50
2022/07/26 06:35:13;;;;;;;9.50;1.35;;;33.80;77.40;;;;;;4954397;28;20024;-54
2022/07/26 06:37:40;;;;;;;;;;;34.30;76.30;;;;;;4956414;29;20096;-53
2022/07/26 06:40:07;;;;;;;4.50;1.33;;;34.50;75.00;;;;;;4970274;28;19906;-53
2022/07/26 06:42:33;;;;;;;3.60;1.20;;;34.70;75.00;;;;;;4954256;28;20034;-51
2022/07/26 06:45:00;;;;;;;2.83;1.00;;;35.00;72.20;;;;;;4955664;28;20024;-52
2022/07/26 06:47:26;;;;;;;3.60;1.05;;;35.10;71.80;;;;;;4957883;28;20054;-49
2022/07/26 06:49:51;;;;;;;2.80;1.00;;;35.30;71.60;;;;;;4957728;28;20031;-53
2022/07/26 06:52:17;;;;;;;4.35;1.00;;;35.40;70.40;;;;;;4958573;28;20049;-52
2022/07/26 06:54:43;;;;;;;3.53;1.13;;;35.90;70.40;;;;;;4959008;28;20050;-53
2022/07/26 06:57:09;;;;;;;6.30;1.10;;;36.00;69.00;;;;;;4958859;28;20023;-51
2022/07/26 06:59:35;;;;;;;2.80;1.33;;;35.80;68.40;;;;;;4957559;28;20107;-53
2022/07/26 07:02:01;;;;;;;3.80;1.23;;;36.20;67.50;;;;;;4958840;28;20023;-52
2022/07/26 07:04:28;;;;;;;2.38;0.95;;;36.60;65.90;;;;;;4958952;28;20027;-54
2022/07/26 07:06:54;;;;;;;4.13;1.10;;;37.30;64.70;;;;;;4957497;28;20023;-51
2022/07/26 07:09:20;;;;;;;2.17;1.17;;;37.60;62.70;;;;;;4958277;28;20104;-48
2022/07/26 07:11:48;;;;;;;3.40;1.15;;;37.60;62.80;;;;;;4957278;28;20062;-52
2022/07/26 07:14:13;;;;;;;4.15;1.13;;;38.00;62.40;;;;;;4958629;28;20070;-51
2022/07/26 07:16:39;;;;;;;1.88;0.98;;;38.40;60.20;;;;;;4957289;28;20024;-53
2022/07/26 07:19:05;;;;;;;5.03;1.08;;;39.00;59.70;;;;;;4957349;28;20031;-49
2022/07/26 07:21:31;;;;;;;4.90;1.08;;;38.70;58.80;;;;;;4958457;28;20016;-52
2022/07/26 07:23:56;;;;;;;2.55;1.05;;;39.00;58.70;;;;;;4958421;28;20078;-52
2022/07/26 07:26:22;;;;;;;2.63;1.10;;;39.00;58.00;;;;;;4958268;28;20035;-48
2022/07/26 07:28:48;;;;;;;3.80;1.50;;;38.70;57.50;;;;;;4957324;28;20028;-52
2022/07/26 07:31:13;;;;;;;2.90;0.95;;;39.10;57.30;;;;;;4957097;28;20039;-52
2022/07/26 07:33:39;;;;;;;1.95;1.20;;;39.40;56.40;;;;;;4957193;28;20062;-52
2022/07/26 07:36:05;;;;;;;4.43;1.52;;;39.90;56.40;;;;;;4958184;28;20034;-52
2022/07/26 07:38:30;;;;;;;4.28;1.15;;;40.00;55.10;;;;;;4958051;28;20034;-51
2022/07/26 07:40:56;;;;;;;2.45;1.30;;;40.10;54.90;;;;;;4956913;28;20047;-49
2022/07/26 07:43:21;;;;;;;4.95;1.20;;;40.10;53.90;;;;;;4956930;28;20035;-49
2022/07/26 07:45:47;;;;;;;4.03;1.30;;;40.20;54.10;;;;;;4958259;28;20478;-53
2022/07/26 07:48:13;;;;;;;1.67;1.10;;;39.80;54.10;;;;;;4957810;28;20031;-48
2022/07/26 07:50:38;;;;;;;4.97;1.30;;;40.00;53.80;;;;;;4956717;28;20027;-50
2022/07/26 07:53:04;;;;;;;2.92;1.10;;;40.80;53.40;;;;;;4957011;28;20034;-49
2022/07/26 07:55:29;;;;;;;1.40;1.20;;;41.20;52.90;;;;;;4956543;28;20082;-48
2022/07/26 07:57:55;;;;;;;4.50;1.13;;;41.20;52.50;;;;;;4955720;28;20030;-49
2022/07/26 08:00:20;;;;;;;1.42;1.20;;;41.80;51.60;;;;;;4956861;28;20487;-48
2022/07/26 08:02:46;;;;;;;2.03;1.30;;;41.90;51.30;;;;;;4957085;28;20023;-49
2022/07/26 08:05:12;;;;;;;1.52;1.00;;;42.10;51.50;;;;;;4956466;28;20066;-48
2022/07/26 08:07:38;;;;;;;2.47;1.02;;;41.00;51.80;;;;;;4957073;28;20106;-54
2022/07/26 08:10:04;;;;;;;3.97;1.10;;;40.30;51.80;;;;;;4956281;28;20118;-51
2022/07/26 08:12:30;;;;;;;5.03;1.20;;;40.50;52.30;;;;;;4956215;28;20035;-53
2022/07/26 08:14:56;;;;;;;3.90;1.38;;;40.50;52.00;;;;;;4957508;28;20030;-52
2022/07/26 08:17:21;;;;;;;3.10;1.42;;;40.00;52.20;;;;;;4957798;28;20028;-54
2022/07/26 08:19:47;;;;;;;4.57;1.30;;;39.30;53.00;;;;;;4956712;28;20020;-54
2022/07/26 08:22:13;;;;;;;1.58;1.20;;;38.60;53.20;;;;;;4957053;28;20509;-54
2022/07/26 08:24:39;;;;;;;3.10;1.35;;;39.40;52.80;;;;;;4957396;28;20090;-52
2022/07/26 08:27:05;;;;;;;2.22;1.45;;;40.10;51.90;;;;;;4956807;28;20031;-48
2022/07/26 08:29:31;;;;;;;2.10;1.17;;;40.10;52.00;;;;;;4956727;28;20027;-50
2022/07/26 08:31:57;;;;;;;3.05;1.08;;;39.60;51.60;;;;;;4957073;28;20051;-48
2022/07/26 08:34:23;;;;;;;3.05;1.15;;;38.50;53.80;;;;;;4956148;28;20051;-50
2022/07/26 08:36:48;;;;;;;2.22;0.95;;;37.70;54.00;;;;;;4957149;28;20058;-49
2022/07/26 08:39:15;;;;;;;5.78;1.20;;;36.60;55.50;;;;;;4955978;28;20050;-49
2022/07/26 08:41:41;;;;;;;2.15;0.70;;;35.80;56.20;;;;;;4956380;28;20030;-50
2022/07/26 08:44:09;;;;;;;9.10;1.88;;;35.40;56.60;;;;;;4956349;28;20094;-50
2022/07/26 08:46:37;;;;;;;5.40;1.50;;;36.10;56.10;;;;;;4956541;28;20027;-55
2022/07/26 08:49:05;;;;;;;1.95;1.13;;;36.10;56.70;;;;;;4955826;28;20063;-55
2022/07/26 08:51:32;;;;;;;3.92;1.10;;;35.50;56.80;;;;;;4956388;28;20032;-52
2022/07/26 08:54:01;;;;;;;3.63;0.95;;;35.00;57.60;;;;;;4955833;28;20028;-53
2022/07/26 08:56:27;;;;;;;4.00;1.33;;;34.20;58.60;;;;;;4955756;28;20038;-51
2022/07/26 08:58:52;;;;;;;8.23;1.23;;;33.60;59.70;;;;;;4955473;28;20024;-53
2022/07/26 09:01:18;;;;;;;3.00;1.10;;;34.20;58.80;;;;;;4955583;28;20034;-55
2022/07/26 09:03:44;;;;;;;3.40;1.30;;;34.00;58.80;;;;;;4955615;28;20034;-54
2022/07/26 09:06:19;;;;;;;5.50;1.10;;;33.60;59.80;;;;;;4955211;28;20066;-56
2022/07/26 09:08:47;;;;;;;3.90;1.27;;;33.30;60.00;;;;;;4955278;28;20200;-52
2022/07/26 09:11:22;;;;;;;2.55;1.00;;;32.90;61.00;;;;;;4956474;28;20082;-53
2022/07/26 09:14:02;;;;;;;2.78;1.38;;;32.50;62.00;;;;;;4955073;28;20035;-51
2022/07/26 09:16:28;;;;;;;2.83;1.17;;;32.70;61.90;;;;;;4957046;28;20028;-54
2022/07/26 09:18:54;;;;;;;2.15;1.13;;;32.90;62.00;;;;;;4954944;28;20122;-51
2022/07/26 09:21:32;;;;;;;4.05;1.42;;;33.30;61.60;;;;;;4955313;28;20031;-54
2022/07/26 09:23:58;;;;;;;3.60;1.58;;;33.90;60.10;;;;;;4955337;28;20023;-53
2022/07/26 09:26:25;;;;;;;1.45;0.95;;;34.20;59.80;;;;;;4954882;28;20393;-51
2022/07/26 09:29:11;;;;;;;2.58;1.10;;;34.10;59.90;;;;;;4956021;28;20038;-53
2022/07/26 09:31:38;;;;;;;4.00;1.40;;;33.30;59.90;;;;;;4954836;28;20487;-51
2022/07/26 09:34:05;;;;;;;2.00;1.30;;;32.70;61.00;;;;;;4954801;28;20027;-54
2022/07/26 09:36:31;;;;;;;2.33;1.08;;;32.20;61.70;;;;;;4956354;28;20150;-51
2022/07/26 09:39:02;;;;;;;2.92;1.40;;;31.80;62.70;;;;;;4955889;28;20024;-53
2022/07/26 09:41:32;;;;;;;1.77;1.10;;;31.50;64.20;;;;;;4954776;28;20485;-50
2022/07/26 09:43:59;;;;;;;16.43;1.77;;;31.30;64.60;;;;;;4956239;28;20054;-53
2022/07/26 09:46:27;;;;;;;5.50;1.38;;;31.40;64.50;;;;;;4954880;28;20037;-52
2022/07/26 09:48:56;;;;;;;3.72;1.45;;;32.20;64.40;;;;;;4954623;28;20074;-53
2022/07/26 09:51:39;;;;;;;2.83;1.42;;;34.00;61.30;;;;;;4954540;28;20031;-51
2022/07/26 09:54:06;;;;;;;7.13;2.17;;;36.00;58.70;;;;;;4955231;28;20035;-51
2022/07/26 09:57:02;;;;;;;4.32;1.48;;;36.70;57.80;;;;;;4954499;28;20031;-54
2022/07/26 09:59:28;;;;;;;5.53;1.70;;;36.30;57.30;;;;;;4955394;28;20067;-53
2022/07/26 10:01:56;;;;;;;2.97;1.65;;;35.90;58.20;;;;;;4954314;28;20493;-54
2022/07/26 10:04:23;;;;;;;4.13;1.65;;;35.70;58.20;;;;;;4955481;28;20026;-53
2022/07/26 10:06:49;;;;;;;4.78;1.20;;;36.10;57.90;;;;;;4954371;28;20024;-54
2022/07/26 10:09:17;;;;;;;4.18;1.50;;;36.50;57.40;;;;;;4954741;28;20059;-56
2022/07/26 10:12:07;;;;;;;2.97;1.50;;;37.00;57.10;;;;;;4954337;28;20030;-50
2022/07/26 10:14:39;;;;;;;4.75;1.58;;;37.50;56.20;;;;;;4954321;28;20043;-54
2022/07/26 10:17:30;;;;;;;4.10;1.52;;;36.50;56.90;;;;;;4954182;28;20027;-51
2022/07/26 10:19:57;;;;;;;4.22;2.20;;;35.60;57.90;;;;;;4953637;28;20394;-54
2022/07/26 10:22:23;;;;;;;4.80;1.20;;;34.50;58.80;;;;;;4954202;28;20031;-51
2022/07/26 10:24:49;;;;;;;2.80;1.70;;;33.70;59.70;;;;;;4954933;28;20130;-50
2022/07/26 10:27:37;;;;;;;1.65;1.52;;;33.00;61.20;;;;;;4954163;28;20038;-55
2022/07/26 10:30:18;;;;;;;5.25;1.90;;;32.60;62.20;;;;;;4955562;28;20082;-52
2022/07/26 10:32:59;;;;;;;3.17;1.95;;;33.20;61.40;;;;;;4955159;28;20024;-50
2022/07/26 10:35:28;;;;;;;2.80;1.45;;;33.60;60.70;;;;;;4954024;28;20039;-53
2022/07/26 10:38:06;;;;;;;4.40;1.92;;;33.30;61.00;;;;;;4955120;28;20023;-54
2022/07/26 10:40:32;;;;;;;4.88;1.98;;;32.70;61.60;;;;;;4955132;28;20032;-52
2022/07/26 10:43:17;;;;;;;2.95;1.90;;;32.20;62.50;;;;;;4953895;28;20030;-49
2022/07/26 10:45:43;;;;;;;4.57;1.95;;;31.80;63.30;;;;;;4954059;28;20054;-53
2022/07/26 10:48:23;;;;;;;2.75;1.63;;;31.40;63.90;;;;;;4953837;28;20086;-53
2022/07/26 10:50:52;;;;;;;2.35;1.70;;;31.10;64.90;;;;;;4955456;28;20027;-52
2022/07/26 10:53:23;;;;;;;3.28;1.85;;;31.20;64.70;;;;;;4954926;28;20397;-53
2022/07/26 10:55:53;;;;;;;1.73;1.40;;;31.30;64.80;;;;;;4954136;28;20499;-55
2022/07/26 10:58:20;;;;;;;2.08;1.65;;;31.30;64.70;;;;;;4953722;28;20023;-53
2022/07/26 11:00:59;;;;;;;4.07;2.08;;;31.20;65.00;;;;;;4955038;28;20028;-52
2022/07/26 11:03:41;;;;;;;7.78;1.92;;;31.00;65.20;;;;;;4955021;28;20032;-53
2022/07/26 11:06:15;;;;;;;3.30;1.83;;;30.80;65.60;;;;;;4954727;28;20031;-51
2022/07/26 11:08:42;;;;;;;2.90;1.85;;;30.60;66.20;;;;;;4954902;28;20023;-52
2022/07/26 11:11:08;;;;;;;2.17;1.70;;;30.40;66.60;;;;;;4953777;28;20028;-52
2022/07/26 11:13:35;;;;;;;8.25;2.88;;;30.40;67.50;;;;;;4954755;28;20166;-54
2022/07/26 11:16:04;;;;;;;4.70;1.90;;;30.20;67.20;;;;;;4953844;28;20027;-54
2022/07/26 11:18:35;;;;;;;7.03;1.75;;;30.40;67.60;;;;;;4953891;28;20024;-52
2022/07/26 11:21:11;;;;;;;;;;;30.50;67.00;;;;;;4954914;28;20031;-50
2022/07/26 11:23:39;;;;;;;3.95;1.60;;;30.60;67.10;;;;;;4970102;28;19913;-55
2022/07/26 11:26:15;;;;;;;3.33;1.50;;;30.90;66.70;;;;;;4954743;28;20027;-53
2022/07/26 11:29:01;;;;;;;2.80;1.38;;;31.00;65.40;;;;;;4953852;28;20042;-50
2022/07/26 11:31:34;;;;;;;3.33;1.50;;;31.10;65.90;;;;;;4955193;28;20390;-51
2022/07/26 11:34:01;;;;;;;3.35;2.00;;;31.30;65.50;;;;;;4958188;28;20434;-53
2022/07/26 11:36:36;;;;;;;2.95;1.50;;;31.30;65.90;;;;;;4957208;28;20020;-55
2022/07/26 11:39:13;;;;;;;4.43;1.75;;;31.40;65.50;;;;;;4956825;28;20446;-54
2022/07/26 11:41:40;;;;;;;5.32;2.20;;;31.50;65.10;;;;;;4958990;28;20051;-54
2022/07/26 11:44:13;;;;;;;2.70;1.98;;;31.60;65.10;;;;;;4957158;28;20033;-54
2022/07/26 11:46:45;;;;;;;2.25;2.00;;;31.50;65.80;;;;;;4957658;28;20092;-52
2022/07/26 11:49:14;;;;;;;5.97;2.20;;;31.60;65.10;;;;;;4958173;28;20118;-53
2022/07/26 11:51:46;;;;;;;5.20;1.98;;;31.40;65.10;;;;;;4958282;28;20139;-54
2022/07/26 11:54:12;;;;;;;3.13;2.70;;;31.40;65.00;;;;;;4957188;28;20082;-50
2022/07/26 11:56:37;;;;;;;3.65;2.45;;;31.20;64.80;;;;;;4956604;28;20437;-52
2022/07/26 11:59:03;;;;;;;4.60;2.40;;;30.90;65.80;;;;;;4956984;28;20058;-52
2022/07/26 12:01:29;;;;;;;5.60;2.53;;;30.90;65.50;;;;;;4956927;28;20418;-51
2022/07/26 12:03:55;;;;;;;3.95;2.83;;;30.80;65.50;;;;;;4956551;28;20123;-56
2022/07/26 12:06:25;;;;;;;4.15;2.75;;;30.80;66.20;;;;;;4956615;28;20024;-52
2022/07/26 12:08:57;;;;;;;5.93;2.72;;;30.80;66.60;;;;;;4956425;28;20151;-54
2022/07/26 12:11:35;;;;;;;4.05;2.60;;;30.70;66.70;;;;;;4957605;28;20023;-53
2022/07/26 12:14:02;;;;;;;3.78;2.25;;;30.60;66.40;;;;;;4957538;28;20051;-51
2022/07/26 12:16:48;;;;;;;4.32;2.03;;;30.50;67.00;;;;;;4957572;28;20027;-53
2022/07/26 12:19:17;;;;;;;5.45;2.40;;;30.30;66.40;;;;;;4972038;28;20074;-54
2022/07/26 12:21:43;;;;;;;4.93;2.03;;;30.40;66.70;;;;;;4956692;28;20028;-53
2022/07/26 12:24:11;;;;;;;3.20;2.20;;;30.50;65.40;;;;;;4956480;28;20034;-51
2022/07/26 12:26:37;;;;;;;2.95;1.92;;;30.60;65.70;;;;;;4956427;28;20024;-52
2022/07/26 12:32:06;;;;;;;3.92;2.17;;;30.60;66.00;;;;;;4957919;29;20046;-49
2022/07/26 12:34:33;;;;;;;5.53;2.13;;;30.60;66.50;;;;;;4956237;28;20533;-50
2022/07/26 12:37:10;;;;;;;2.35;2.00;;;30.60;65.40;;;;;;4957468;28;20055;-53
2022/07/26 12:39:37;;;;;;;7.60;2.70;;;30.50;65.60;;;;;;4955774;28;20039;-51
2022/07/26 12:42:25;;;;;;;5.18;2.45;;;30.30;66.10;;;;;;4955672;28;20501;-52
2022/07/26 12:44:51;;;;;;;3.85;2.53;;;30.10;66.80;;;;;;4957236;28;20027;-51
2022/07/26 12:47:17;;;;;;;6.50;2.33;;;30.10;66.90;;;;;;4955683;28;20026;-52
2022/07/26 12:49:45;;;;;;;3.28;2.50;;;30.00;67.40;;;;;;4955697;28;20039;-54
2022/07/26 12:52:12;;;;;;;3.85;2.65;;;29.80;68.30;;;;;;4955567;28;20118;-56
2022/07/26 12:54:39;;;;;;;4.70;2.85;;;29.80;69.00;;;;;;4955547;28;20031;-50
2022/07/26 12:57:04;;;;;;;4.75;3.00;;;29.80;68.40;;;;;;4955525;28;20026;-54